createdAt,value
2023-03-04T00:01:48.290Z,9.79
2023-03-04T00:04:14.838Z,9.69
2023-03-04T00:06:41.216Z,9.81
2023-03-04T00:09:07.625Z,9.70
2023-03-04T00:11:34.312Z,9.73
2023-03-04T00:14:00.754Z,9.71
2023-03-04T00:16:27.436Z,9.81
2023-03-04T00:18:55.141Z,9.81
2023-03-04T00:21:21.693Z,9.44
2023-03-04T00:23:48.295Z,9.96
2023-03-04T00:26:14.840Z,9.65
2023-03-04T00:28:41.247Z,9.53
2023-03-04T00:31:08.562Z,9.59
2023-03-04T00:33:35.103Z,9.72
2023-03-04T00:36:01.702Z,9.90
2023-03-04T00:38:28.160Z,9.95
2023-03-04T00:40:54.554Z,9.87
2023-03-04T00:43:21.430Z,9.61
2023-03-04T00:45:47.933Z,9.88
2023-03-04T00:48:14.920Z,9.80
2023-03-04T00:50:41.280Z,9.80
2023-03-04T00:53:07.919Z,9.98
2023-03-04T00:55:34.308Z,9.40
2023-03-04T00:58:00.773Z,9.57
2023-03-04T01:00:27.255Z,9.80
2023-03-04T01:02:53.654Z,9.78
2023-03-04T01:05:20.219Z,9.57
2023-03-04T01:07:46.858Z,9.33
2023-03-04T01:10:14.968Z,9.41
2023-03-04T01:12:41.902Z,9.56
2023-03-04T01:15:13.241Z,9.69
2023-03-04T01:17:40.131Z,9.64
2023-03-04T01:20:07.792Z,9.71
2023-03-04T01:22:34.183Z,9.51
2023-03-04T01:25:00.597Z,9.63
2023-03-04T01:27:27.085Z,9.91
2023-03-04T01:29:53.476Z,9.98
2023-03-04T01:32:19.870Z,9.79
2023-03-04T01:34:46.292Z,9.96
2023-03-04T01:37:13.896Z,9.88
2023-03-04T01:39:40.320Z,9.91
2023-03-04T01:42:13.713Z,10.03
2023-03-04T01:44:40.108Z,9.66
2023-03-04T01:47:06.498Z,9.47
2023-03-04T01:49:33.581Z,9.87
2023-03-04T01:52:00.000Z,9.93
2023-03-04T01:54:26.397Z,9.84
2023-03-04T01:56:52.836Z,9.86
2023-03-04T01:59:20.862Z,10.10
2023-03-04T02:01:49.380Z,9.89
2023-03-04T02:04:17.052Z,9.76
2023-03-04T02:06:44.467Z,9.49
2023-03-04T02:09:11.142Z,9.57
2023-03-04T02:11:38.687Z,9.62
2023-03-04T02:14:05.852Z,9.48
2023-03-04T02:16:32.462Z,9.41
2023-03-04T02:18:59.061Z,9.33
2023-03-04T02:21:33.565Z,9.71
2023-03-04T02:24:18.144Z,9.75
2023-03-04T02:26:47.004Z,9.72
2023-03-04T02:29:15.153Z,9.82
2023-03-04T02:31:49.876Z,9.55
2023-03-04T02:34:19.613Z,9.50
2023-03-04T02:36:47.203Z,9.47
2023-03-04T02:39:21.261Z,9.43
2023-03-04T02:41:48.913Z,9.61
2023-03-04T02:44:18.028Z,9.40
2023-03-04T02:46:45.078Z,9.43
2023-03-04T02:49:11.496Z,9.51
2023-03-04T02:51:37.972Z,9.70
2023-03-04T02:54:04.845Z,9.81
2023-03-04T02:56:31.240Z,9.69
2023-03-04T02:58:57.810Z,9.57
2023-03-04T03:01:28.501Z,9.47
2023-03-04T03:03:54.920Z,9.44
2023-03-04T03:06:21.316Z,9.52
2023-03-04T03:08:47.824Z,9.69
2023-03-04T03:11:14.207Z,9.58
2023-03-04T03:13:40.581Z,9.50
2023-03-04T03:16:07.153Z,9.59
2023-03-04T03:18:33.550Z,9.50
2023-03-04T03:20:59.962Z,9.72
2023-03-04T03:23:26.374Z,9.69
2023-03-04T03:25:52.778Z,9.42
2023-03-04T03:28:19.132Z,9.58
2023-03-04T03:30:45.786Z,9.54
2023-03-04T03:33:12.177Z,9.92
2023-03-04T03:35:38.897Z,9.89
2023-03-04T03:38:05.286Z,9.66
2023-03-04T03:40:31.787Z,9.81
2023-03-04T03:42:58.175Z,10.03
2023-03-04T03:45:24.756Z,9.99
2023-03-04T03:47:51.288Z,9.89
2023-03-04T03:50:18.127Z,9.98
2023-03-04T03:52:44.681Z,9.73
2023-03-04T03:55:11.512Z,9.90
2023-03-04T03:57:38.227Z,9.89
2023-03-04T04:00:07.447Z,9.76
2023-03-04T04:02:33.941Z,9.65
2023-03-04T04:05:00.415Z,9.60
2023-03-04T04:07:27.065Z,9.35
2023-03-04T04:09:53.592Z,9.57
2023-03-04T04:12:20.937Z,9.53
2023-03-04T04:14:47.573Z,9.47
2023-03-04T04:17:14.035Z,9.32
2023-03-04T04:19:41.173Z,9.34
2023-03-04T04:22:09.911Z,9.51
2023-03-04T04:24:36.328Z,9.41
2023-03-04T04:27:04.405Z,9.40
2023-03-04T04:29:31.294Z,9.58
2023-03-04T04:31:57.975Z,9.58
2023-03-04T04:34:24.705Z,9.25
2023-03-04T04:36:51.764Z,9.51
2023-03-04T04:39:18.955Z,9.11
2023-03-04T04:41:46.225Z,9.11
2023-03-04T04:44:13.855Z,9.27
2023-03-04T04:46:41.419Z,9.22
2023-03-04T04:49:08.221Z,9.14
2023-03-04T04:51:36.449Z,9.05
2023-03-04T04:54:03.359Z,9.20
2023-03-04T04:56:30.001Z,9.23
2023-03-04T04:58:58.274Z,9.32
2023-03-04T05:01:27.170Z,9.24
2023-03-04T05:03:55.336Z,9.30
2023-03-04T05:06:24.711Z,9.19
2023-03-04T05:08:51.731Z,9.09
2023-03-04T05:11:19.493Z,9.14
2023-03-04T05:13:46.535Z,9.38
2023-03-04T05:16:13.591Z,9.18
2023-03-04T05:18:40.112Z,8.99
2023-03-04T05:21:06.957Z,9.37
2023-03-04T05:23:35.336Z,9.36
2023-03-04T05:26:02.845Z,9.22
2023-03-04T05:28:29.276Z,9.31
2023-03-04T05:30:55.830Z,9.26
2023-03-04T05:33:22.399Z,9.55
2023-03-04T05:35:49.757Z,9.38
2023-03-04T05:38:19.596Z,9.24
2023-03-04T05:40:46.806Z,9.09
2023-03-04T05:43:13.243Z,8.96
2023-03-04T05:45:40.286Z,8.97
2023-03-04T05:48:06.922Z,9.24
2023-03-04T05:50:33.749Z,9.03
2023-03-04T05:53:00.470Z,9.26
2023-03-04T05:55:28.981Z,9.18
2023-03-04T05:57:55.708Z,9.06
2023-03-04T06:00:22.134Z,8.94
2023-03-04T06:02:50.380Z,9.12
2023-03-04T06:05:17.443Z,9.22
2023-03-04T06:07:45.199Z,9.05
2023-03-04T06:10:16.713Z,9.07
2023-03-04T06:12:43.654Z,9.33
2023-03-04T06:15:12.014Z,9.23
2023-03-04T06:17:41.807Z,9.33
2023-03-04T06:20:10.539Z,9.16
2023-03-04T06:22:38.050Z,9.52
2023-03-04T06:25:04.951Z,9.15
2023-03-04T06:27:31.418Z,9.37
2023-03-04T06:29:58.910Z,9.65
2023-03-04T06:32:25.473Z,9.44
2023-03-04T06:34:51.937Z,9.65
2023-03-04T06:37:18.383Z,9.64
2023-03-04T06:39:45.404Z,9.77
2023-03-04T06:42:12.632Z,9.92
2023-03-04T06:44:39.021Z,9.70
2023-03-04T06:47:05.514Z,9.59
2023-03-04T06:49:31.907Z,9.64
2023-03-04T06:51:58.456Z,9.40
2023-03-04T06:54:24.874Z,9.74
2023-03-04T06:56:51.435Z,9.39
2023-03-04T06:59:17.848Z,9.79
2023-03-04T07:01:44.549Z,9.88
2023-03-04T07:04:13.264Z,9.79
2023-03-04T07:06:39.807Z,9.60
2023-03-04T07:09:06.277Z,9.72
2023-03-04T07:11:32.826Z,9.65
2023-03-04T07:13:59.375Z,9.74
2023-03-04T07:16:25.891Z,9.65
2023-03-04T07:18:52.551Z,9.89
2023-03-04T07:21:19.494Z,9.81
2023-03-04T07:23:46.272Z,9.67
2023-03-04T07:26:12.737Z,9.82
2023-03-04T07:28:39.469Z,9.85
2023-03-04T07:31:24.206Z,10.17
2023-03-04T07:33:51.008Z,9.95
2023-03-04T07:36:20.014Z,10.06
2023-03-04T07:38:49.524Z,9.74
2023-03-04T07:41:17.562Z,9.91
2023-03-04T07:43:44.566Z,10.11
2023-03-04T07:46:11.253Z,10.04
2023-03-04T07:48:38.040Z,10.46
2023-03-04T07:51:15.427Z,10.13
2023-03-04T07:53:44.012Z,10.26
2023-03-04T07:56:18.840Z,9.82
2023-03-04T07:58:45.580Z,10.15
2023-03-04T08:01:14.046Z,10.29
2023-03-04T08:03:40.608Z,10.42
2023-03-04T08:06:09.417Z,10.29
2023-03-04T08:08:36.524Z,10.33
2023-03-04T08:11:07.692Z,10.51
2023-03-04T08:13:36.056Z,10.70
2023-03-04T08:16:03.299Z,10.61
2023-03-04T08:18:30.025Z,10.68
2023-03-04T08:20:56.655Z,10.41
2023-03-04T08:23:24.063Z,10.54
2023-03-04T08:25:50.449Z,10.82
2023-03-04T08:28:17.286Z,10.60
2023-03-04T08:30:43.872Z,10.42
2023-03-04T08:33:10.574Z,10.26
2023-03-04T08:35:39.392Z,10.31
2023-03-04T08:38:06.445Z,10.26
2023-03-04T08:40:33.570Z,9.88
2023-03-04T08:43:00.355Z,10.20
2023-03-04T08:45:26.796Z,10.26
2023-03-04T08:47:53.171Z,10.29
2023-03-04T08:50:22.249Z,10.19
2023-03-04T08:52:48.845Z,9.95
2023-03-04T08:55:15.307Z,10.31
2023-03-04T08:57:41.768Z,10.08
2023-03-04T09:00:08.858Z,10.20
2023-03-04T09:02:35.247Z,10.21
2023-03-04T09:05:01.692Z,10.56
2023-03-04T09:07:28.114Z,10.26
2023-03-04T09:09:54.587Z,9.51
2023-03-04T09:12:20.979Z,9.74
2023-03-04T09:14:51.324Z,9.29
2023-03-04T09:17:24.678Z,8.98
2023-03-04T09:19:51.075Z,9.02
2023-03-04T09:22:17.783Z,9.29
2023-03-04T09:24:44.193Z,9.55
2023-03-04T09:27:10.646Z,9.79
2023-03-04T09:29:37.097Z,10.09
2023-03-04T09:32:03.636Z,10.23
2023-03-04T09:34:30.092Z,10.58
2023-03-04T09:36:56.777Z,10.47
2023-03-04T09:39:23.198Z,10.53
2023-03-04T09:41:52.851Z,10.62
2023-03-04T09:44:36.737Z,10.07
2023-03-04T09:47:06.747Z,9.95
2023-03-04T09:49:33.233Z,10.15
2023-03-04T09:52:24.843Z,10.12
2023-03-04T09:55:13.280Z,10.21
2023-03-04T09:57:42.712Z,9.80
2023-03-04T10:00:19.988Z,10.21
2023-03-04T10:03:15.391Z,10.17
2023-03-04T10:06:07.916Z,10.67
2023-03-04T10:08:46.290Z,10.91
2023-03-04T10:11:43.434Z,10.56
2023-03-04T10:14:28.098Z,10.60
2023-03-04T10:17:00.998Z,10.36
2023-03-04T10:19:49.112Z,9.74
2023-03-04T10:22:31.597Z,10.43
2023-03-04T10:24:59.347Z,9.94
2023-03-04T10:27:26.440Z,10.18
2023-03-04T10:29:52.826Z,9.91
2023-03-04T10:32:20.476Z,10.22
2023-03-04T10:34:47.282Z,10.01
2023-03-04T10:37:13.722Z,10.50
2023-03-04T10:39:44.886Z,10.18
2023-03-04T10:42:14.320Z,9.41
2023-03-04T10:44:52.160Z,9.92
2023-03-04T10:47:18.745Z,9.69
2023-03-04T10:49:54.109Z,9.74
2023-03-04T10:52:38.782Z,10.20
2023-03-04T10:55:20.002Z,10.04
2023-03-04T10:57:49.920Z,10.06
2023-03-04T11:00:34.617Z,10.07
2023-03-04T11:03:23.583Z,9.72
2023-03-04T11:05:53.491Z,10.28
2023-03-04T11:08:22.512Z,10.43
2023-03-04T11:10:52.078Z,10.70
2023-03-04T11:13:21.950Z,10.93
2023-03-04T11:15:57.541Z,10.43
2023-03-04T11:18:38.217Z,10.06
2023-03-04T11:21:05.874Z,10.76
2023-03-04T11:23:38.264Z,10.31
2023-03-04T11:26:10.439Z,10.71
2023-03-04T11:28:43.247Z,10.90
2023-03-04T11:31:21.863Z,10.88
2023-03-04T11:33:55.952Z,11.24
2023-03-04T11:36:31.395Z,11.35
2023-03-04T11:38:58.311Z,11.31
2023-03-04T11:41:34.102Z,10.76
2023-03-04T11:44:00.608Z,10.47
2023-03-04T11:46:45.700Z,10.79
2023-03-04T11:49:18.314Z,10.53
2023-03-04T11:51:54.577Z,10.47
2023-03-04T11:54:47.456Z,10.56
2023-03-04T11:57:27.837Z,10.70
2023-03-04T12:00:02.430Z,10.80
2023-03-04T12:02:34.429Z,10.97
2023-03-04T12:05:16.266Z,10.87
2023-03-04T12:08:04.143Z,11.04
2023-03-04T12:10:51.739Z,11.38
2023-03-04T12:13:43.217Z,11.34
2023-03-04T12:16:21.373Z,11.30
2023-03-04T12:19:12.897Z,10.43
2023-03-04T12:21:55.268Z,10.19
2023-03-04T12:24:33.686Z,9.66
2023-03-04T12:27:02.220Z,9.19
2023-03-04T12:30:02.290Z,9.31
2023-03-04T12:32:40.549Z,9.67
2023-03-04T12:35:37.553Z,9.56
2023-03-04T12:38:22.552Z,10.05
2023-03-04T12:40:57.537Z,10.33
2023-03-04T12:43:32.918Z,10.23
2023-03-04T12:46:07.489Z,10.45
2023-03-04T12:48:41.450Z,10.93
2023-03-04T12:51:17.066Z,10.69
2023-03-04T12:53:54.552Z,10.96
2023-03-04T12:56:58.049Z,10.87
2023-03-04T12:59:26.648Z,10.36
2023-03-04T13:01:56.598Z,10.87
2023-03-04T13:04:34.799Z,10.21
2023-03-04T13:07:41.975Z,9.81
2023-03-04T13:10:12.845Z,10.45
2023-03-04T13:12:53.542Z,10.68
2023-03-04T13:15:23.986Z,10.54
2023-03-04T13:17:51.552Z,10.33
2023-03-04T13:20:30.163Z,9.60
2023-03-04T13:22:58.250Z,9.64
2023-03-04T13:25:33.920Z,10.28
2023-03-04T13:28:00.541Z,10.38
2023-03-04T13:30:43.112Z,10.70
2023-03-04T13:33:18.365Z,10.72
2023-03-04T13:36:02.734Z,10.38
2023-03-04T13:38:32.458Z,10.53
2023-03-04T13:41:04.973Z,10.42
2023-03-04T13:43:52.250Z,10.31
2023-03-04T13:46:21.242Z,10.73
2023-03-04T13:48:53.082Z,10.62
2023-03-04T13:51:29.930Z,10.34
2023-03-04T13:53:59.829Z,10.42
2023-03-04T13:56:31.516Z,10.28
2023-03-04T13:59:07.037Z,10.41
2023-03-04T14:02:06.833Z,10.04
2023-03-04T14:04:41.714Z,9.37
2023-03-04T14:07:26.147Z,9.54
2023-03-04T14:10:00.132Z,9.68
2023-03-04T14:12:29.272Z,9.92
2023-03-04T14:15:31.235Z,10.07
2023-03-04T14:18:02.581Z,9.44
2023-03-04T14:20:34.586Z,9.70
2023-03-04T14:23:02.941Z,9.60
2023-03-04T14:25:36.683Z,9.77
2023-03-04T14:28:12.599Z,9.93
2023-03-04T14:30:43.202Z,9.94
2023-03-04T14:33:16.232Z,8.99
2023-03-04T14:35:48.313Z,9.46
2023-03-04T14:38:27.434Z,9.15
2023-03-04T14:41:05.304Z,9.57
2023-03-04T14:43:36.630Z,9.79
2023-03-04T14:46:03.705Z,9.24
2023-03-04T14:48:33.728Z,9.17
2023-03-04T14:51:01.754Z,9.39
2023-03-04T14:53:33.060Z,8.94
2023-03-04T14:56:00.412Z,9.44
2023-03-04T14:58:29.720Z,9.46
2023-03-04T15:01:19.500Z,9.87
2023-03-04T15:03:54.129Z,9.34
2023-03-04T15:06:23.123Z,9.74
2023-03-04T15:09:05.818Z,9.00
2023-03-04T15:11:47.563Z,8.90
2023-03-04T15:14:52.189Z,9.18
2023-03-04T15:17:39.308Z,9.20
2023-03-04T15:20:05.783Z,9.08
2023-03-04T15:22:37.432Z,9.26
2023-03-04T15:25:03.992Z,8.89
2023-03-04T15:27:30.857Z,9.02
2023-03-04T15:29:59.311Z,8.99
2023-03-04T15:32:26.641Z,8.94
2023-03-04T15:34:53.247Z,8.85
2023-03-04T15:37:22.365Z,8.91
2023-03-04T15:39:49.382Z,8.79
2023-03-04T15:42:17.697Z,8.98
2023-03-04T15:44:44.181Z,8.47
2023-03-04T15:47:13.070Z,8.57
2023-03-04T15:49:41.027Z,8.32
2023-03-04T15:52:13.525Z,8.40
2023-03-04T15:54:40.110Z,8.73
2023-03-04T15:57:09.299Z,8.51
2023-03-04T15:59:35.733Z,8.76
2023-03-04T16:02:02.125Z,8.44
2023-03-04T16:04:28.599Z,8.75
2023-03-04T16:06:58.817Z,8.63
2023-03-04T16:09:26.436Z,8.58
2023-03-04T16:11:56.296Z,8.55
2023-03-04T16:14:22.774Z,8.22
2023-03-04T16:16:50.417Z,8.01
2023-03-04T16:19:16.822Z,8.16
2023-03-04T16:21:44.349Z,8.29
2023-03-04T16:24:17.289Z,8.27
2023-03-04T16:26:43.810Z,8.00
2023-03-04T16:29:12.638Z,7.99
2023-03-04T16:31:39.051Z,8.04
2023-03-04T16:34:05.510Z,8.08
2023-03-04T16:36:32.155Z,7.91
2023-03-04T16:39:03.029Z,7.85
2023-03-04T16:41:32.188Z,7.95
2023-03-04T16:44:00.625Z,7.79
2023-03-04T16:46:27.268Z,7.78
2023-03-04T16:48:53.955Z,7.67
2023-03-04T16:51:22.361Z,7.87
2023-03-04T16:53:52.284Z,7.83
2023-03-04T16:56:19.657Z,7.86
2023-03-04T16:58:46.279Z,7.94
2023-03-04T17:01:24.690Z,7.76
2023-03-04T17:03:51.864Z,7.82
2023-03-04T17:06:19.898Z,7.77
2023-03-04T17:08:46.745Z,7.74
2023-03-04T17:11:16.895Z,7.71
2023-03-04T17:13:43.943Z,7.63
2023-03-04T17:16:11.516Z,7.54
2023-03-04T17:18:38.842Z,7.63
2023-03-04T17:21:07.991Z,7.61
2023-03-04T17:23:38.532Z,7.78
2023-03-04T17:26:05.578Z,7.48
2023-03-04T17:28:32.645Z,7.74
2023-03-04T17:31:00.655Z,7.60
2023-03-04T17:33:27.309Z,7.82
2023-03-04T17:35:53.753Z,7.86
2023-03-04T17:38:20.603Z,7.81
2023-03-04T17:40:47.102Z,7.70
2023-03-04T17:43:13.596Z,7.91
2023-03-04T17:45:41.158Z,7.78
2023-03-04T17:48:08.738Z,7.58
2023-03-04T17:50:35.420Z,7.75
2023-03-04T17:53:02.001Z,7.90
2023-03-04T17:55:28.467Z,7.74
2023-03-04T17:57:57.356Z,7.97
2023-03-04T18:00:24.103Z,7.80
2023-03-04T18:02:50.559Z,7.74
2023-03-04T18:05:16.974Z,7.55
2023-03-04T18:07:43.447Z,7.69
2023-03-04T18:10:11.183Z,7.69
2023-03-04T18:12:37.766Z,7.51
2023-03-04T18:15:04.571Z,7.53
2023-03-04T18:17:31.034Z,7.33
2023-03-04T18:19:57.428Z,7.27
2023-03-04T18:22:23.801Z,7.47
2023-03-04T18:24:50.210Z,7.65
2023-03-04T18:27:16.588Z,7.47
2023-03-04T18:29:42.993Z,7.43
2023-03-04T18:32:09.679Z,7.34
2023-03-04T18:34:36.216Z,7.24
2023-03-04T18:37:05.185Z,7.22
2023-03-04T18:39:31.660Z,7.33
2023-03-04T18:41:58.120Z,7.27
2023-03-04T18:44:24.512Z,7.64
2023-03-04T18:46:52.913Z,7.51
2023-03-04T18:49:20.224Z,7.65
2023-03-04T18:51:46.770Z,7.61
2023-03-04T18:54:13.212Z,7.51
2023-03-04T18:56:54.601Z,7.29
2023-03-04T18:59:31.423Z,7.47
2023-03-04T19:01:59.737Z,7.42
2023-03-04T19:04:27.948Z,7.39
2023-03-04T19:06:54.694Z,7.47
2023-03-04T19:09:21.128Z,7.38
2023-03-04T19:11:50.423Z,7.35
2023-03-04T19:14:16.885Z,7.50
2023-03-04T19:16:43.334Z,7.57
2023-03-04T19:19:09.731Z,7.57
2023-03-04T19:21:39.034Z,7.63
2023-03-04T19:24:05.841Z,7.54
2023-03-04T19:26:32.913Z,7.53
2023-03-04T19:29:00.377Z,7.61
2023-03-04T19:31:27.148Z,7.53
2023-03-04T19:33:53.626Z,7.74
2023-03-04T19:36:20.206Z,7.55
2023-03-04T19:38:46.633Z,7.59
2023-03-04T19:41:17.411Z,7.67
2023-03-04T19:43:45.908Z,7.44
2023-03-04T19:46:16.963Z,7.57
2023-03-04T19:48:45.199Z,7.13
2023-03-04T19:51:16.909Z,7.25
2023-03-04T19:53:43.881Z,7.12
2023-03-04T19:56:10.897Z,6.96
2023-03-04T19:58:37.352Z,6.87
2023-03-04T20:01:04.314Z,6.88
2023-03-04T20:03:30.814Z,6.97
2023-03-04T20:06:07.912Z,6.77
2023-03-04T20:08:37.856Z,6.94
2023-03-04T20:11:11.552Z,7.16
2023-03-04T20:13:37.954Z,7.18
2023-03-04T20:16:09.458Z,7.27
2023-03-04T20:18:36.053Z,7.16
2023-03-04T20:21:02.824Z,7.25
2023-03-04T20:23:29.444Z,7.25
2023-03-04T20:25:55.959Z,7.26
2023-03-04T20:28:25.702Z,7.13
2023-03-04T20:30:53.418Z,6.82
2023-03-04T20:33:20.585Z,6.91
2023-03-04T20:35:47.416Z,7.18
2023-03-04T20:38:16.144Z,6.96
2023-03-04T20:40:42.620Z,7.28
2023-03-04T20:43:10.074Z,7.24
2023-03-04T20:45:37.286Z,7.37
2023-03-04T20:48:05.587Z,7.41
2023-03-04T20:50:32.011Z,7.35
2023-03-04T20:53:01.527Z,7.29
2023-03-04T20:55:28.119Z,7.15
2023-03-04T20:57:54.754Z,7.47
2023-03-04T21:00:21.596Z,7.31
2023-03-04T21:02:48.017Z,7.38
2023-03-04T21:05:14.637Z,7.06
2023-03-04T21:07:41.060Z,7.00
2023-03-04T21:10:07.797Z,6.91
2023-03-04T21:12:34.295Z,6.98
2023-03-04T21:15:08.199Z,7.11
2023-03-04T21:17:34.662Z,6.70
2023-03-04T21:20:01.051Z,6.84
2023-03-04T21:22:28.838Z,6.90
2023-03-04T21:24:55.902Z,6.75
2023-03-04T21:27:23.625Z,6.83
2023-03-04T21:29:50.192Z,6.87
2023-03-04T21:32:24.611Z,6.95
2023-03-04T21:34:52.420Z,6.62
2023-03-04T21:37:20.473Z,6.95
2023-03-04T21:39:46.981Z,7.08
2023-03-04T21:42:13.608Z,6.91
2023-03-04T21:44:48.970Z,6.46
2023-03-04T21:47:16.589Z,6.44
2023-03-04T21:49:43.250Z,6.40
2023-03-04T21:52:09.780Z,6.70
2023-03-04T21:54:36.165Z,6.77
2023-03-04T21:57:02.684Z,6.71
2023-03-04T21:59:29.154Z,6.88
2023-03-04T22:01:55.688Z,6.90
2023-03-04T22:04:22.216Z,6.78
2023-03-04T22:06:48.904Z,6.91
2023-03-04T22:09:15.765Z,7.02
2023-03-04T22:11:42.287Z,6.83
2023-03-04T22:14:10.503Z,7.04
2023-03-04T22:16:48.936Z,6.98
2023-03-04T22:19:20.927Z,7.19
2023-03-04T22:21:47.395Z,7.03
2023-03-04T22:24:13.811Z,7.11
2023-03-04T22:26:40.218Z,7.05
2023-03-04T22:29:06.628Z,7.13
2023-03-04T22:31:35.744Z,7.09
2023-03-04T22:34:05.220Z,7.21
2023-03-04T22:36:33.536Z,7.15
2023-03-04T22:39:01.759Z,7.02
2023-03-04T22:41:28.249Z,6.97
2023-03-04T22:43:55.020Z,7.06
2023-03-04T22:46:27.297Z,7.08
2023-03-04T22:48:56.346Z,7.21
2023-03-04T22:51:23.497Z,7.19
2023-03-04T22:53:51.753Z,7.12
2023-03-04T22:56:19.247Z,7.36
2023-03-04T22:58:47.033Z,7.20
2023-03-04T23:01:15.299Z,7.29
2023-03-04T23:03:42.557Z,7.11
2023-03-04T23:06:30.828Z,7.18
2023-03-04T23:08:58.125Z,7.24
2023-03-04T23:11:27.976Z,7.27
2023-03-04T23:13:54.742Z,7.06
2023-03-04T23:16:24.372Z,7.15
2023-03-04T23:18:51.909Z,7.10
2023-03-04T23:21:23.988Z,7.33
2023-03-04T23:23:51.974Z,7.25
2023-03-04T23:26:21.315Z,7.18
2023-03-04T23:28:48.310Z,7.19
2023-03-04T23:31:15.113Z,7.03
2023-03-04T23:33:44.650Z,7.21
2023-03-04T23:36:15.254Z,7.24
2023-03-04T23:38:43.762Z,7.28
2023-03-04T23:41:15.192Z,7.21
2023-03-04T23:43:41.916Z,6.99
2023-03-04T23:46:12.367Z,7.00
2023-03-04T23:48:43.742Z,7.11
2023-03-04T23:51:10.916Z,6.92
2023-03-04T23:53:39.185Z,7.09
2023-03-04T23:56:10.339Z,7.12
2023-03-04T23:58:36.889Z,7.09
